Fountain Bluff, Illinois
Current Conditions -  °F | °C
As of 10:52 AM on Saturday 25 Oct 2014 (Local Time) from KMDH Reporting Station
Clear Clear  
Wind Chill: 72°   Ceiling: Unl
Heat Index: 72°   Visibility: 10mi
Dew Point: 61°   Wind: 5mph
Humidity: 68%   Direction: NA
Pressure: 30.04"   Gusts: NA
Location:  37.7458°N, 89.5469°W
Report Text: KMDH 251552Z VRB04KT 10SM CLR 22/16 A3004 RMK AO2 SLP170 T02220161
Loading
Personal Weather Stations






























Interactive Weather Map
Tropical Storm Tracking
New forecast layout! Learn more

10-Day Weather Forecast

Advertisements
Track Severe Weather on mobile